sensor_id;sensor_type;location;lat;lon;timestamp;P1;durP1;ratioP1;P2;durP2;ratioP2
15603;SDS011;7902;49.042;9.092;2022-07-23T00:01:32;20.63;;;5.10;;
15603;SDS011;7902;49.042;9.092;2022-07-23T00:03:58;20.00;;;4.93;;
15603;SDS011;7902;49.042;9.092;2022-07-23T00:06:24;18.00;;;4.57;;
15603;SDS011;7902;49.042;9.092;2022-07-23T00:08:50;18.38;;;4.78;;
15603;SDS011;7902;49.042;9.092;2022-07-23T00:11:17;20.88;;;4.72;;
15603;SDS011;7902;49.042;9.092;2022-07-23T00:13:43;18.45;;;4.55;;
15603;SDS011;7902;49.042;9.092;2022-07-23T00:16:09;20.67;;;5.28;;
15603;SDS011;7902;49.042;9.092;2022-07-23T00:18:35;22.27;;;4.45;;
15603;SDS011;7902;49.042;9.092;2022-07-23T00:21:01;20.30;;;5.38;;
15603;SDS011;7902;49.042;9.092;2022-07-23T00:23:27;28.77;;;5.00;;
15603;SDS011;7902;49.042;9.092;2022-07-23T00:25:54;19.33;;;4.47;;
15603;SDS011;7902;49.042;9.092;2022-07-23T00:28:20;20.65;;;4.38;;
15603;SDS011;7902;49.042;9.092;2022-07-23T00:30:46;23.35;;;4.18;;
15603;SDS011;7902;49.042;9.092;2022-07-23T00:33:12;20.25;;;4.50;;
15603;SDS011;7902;49.042;9.092;2022-07-23T00:35:39;19.55;;;4.70;;
15603;SDS011;7902;49.042;9.092;2022-07-23T00:38:07;20.38;;;4.43;;
15603;SDS011;7902;49.042;9.092;2022-07-23T00:40:35;21.05;;;4.45;;
15603;SDS011;7902;49.042;9.092;2022-07-23T00:43:01;18.92;;;3.97;;
15603;SDS011;7902;49.042;9.092;2022-07-23T00:45:28;21.75;;;4.40;;
15603;SDS011;7902;49.042;9.092;2022-07-23T00:47:54;20.88;;;4.63;;
15603;SDS011;7902;49.042;9.092;2022-07-23T00:50:20;16.58;;;3.95;;
15603;SDS011;7902;49.042;9.092;2022-07-23T00:52:46;17.52;;;4.65;;
15603;SDS011;7902;49.042;9.092;2022-07-23T00:55:12;18.60;;;5.05;;
15603;SDS011;7902;49.042;9.092;2022-07-23T00:57:39;18.65;;;5.20;;
15603;SDS011;7902;49.042;9.092;2022-07-23T01:00:08;17.38;;;4.60;;
15603;SDS011;7902;49.042;9.092;2022-07-23T01:02:36;22.23;;;5.68;;
15603;SDS011;7902;49.042;9.092;2022-07-23T01:05:03;23.20;;;5.15;;
15603;SDS011;7902;49.042;9.092;2022-07-23T01:07:29;24.13;;;4.97;;
15603;SDS011;7902;49.042;9.092;2022-07-23T01:09:55;18.20;;;4.20;;
15603;SDS011;7902;49.042;9.092;2022-07-23T01:12:21;20.27;;;5.15;;
15603;SDS011;7902;49.042;9.092;2022-07-23T01:14:57;19.02;;;4.88;;
15603;SDS011;7902;49.042;9.092;2022-07-23T01:17:24;23.37;;;4.80;;
15603;SDS011;7902;49.042;9.092;2022-07-23T01:19:50;25.00;;;5.17;;
15603;SDS011;7902;49.042;9.092;2022-07-23T01:22:17;19.43;;;4.73;;
15603;SDS011;7902;49.042;9.092;2022-07-23T01:24:44;17.00;;;4.90;;
15603;SDS011;7902;49.042;9.092;2022-07-23T01:27:10;19.67;;;5.82;;
15603;SDS011;7902;49.042;9.092;2022-07-23T01:29:38;18.87;;;4.50;;
15603;SDS011;7902;49.042;9.092;2022-07-23T01:32:04;20.83;;;4.80;;
15603;SDS011;7902;49.042;9.092;2022-07-23T01:34:31;22.05;;;5.22;;
15603;SDS011;7902;49.042;9.092;2022-07-23T01:36:57;22.13;;;5.07;;
15603;SDS011;7902;49.042;9.092;2022-07-23T01:39:23;24.90;;;4.82;;
15603;SDS011;7902;49.042;9.092;2022-07-23T01:41:49;19.00;;;4.83;;
15603;SDS011;7902;49.042;9.092;2022-07-23T01:44:15;20.05;;;4.90;;
15603;SDS011;7902;49.042;9.092;2022-07-23T01:46:41;18.60;;;4.50;;
15603;SDS011;7902;49.042;9.092;2022-07-23T01:49:07;25.27;;;5.03;;
15603;SDS011;7902;49.042;9.092;2022-07-23T01:51:33;25.40;;;5.45;;
15603;SDS011;7902;49.042;9.092;2022-07-23T01:53:59;20.03;;;5.07;;
15603;SDS011;7902;49.042;9.092;2022-07-23T01:56:25;21.63;;;6.03;;
15603;SDS011;7902;49.042;9.092;2022-07-23T01:58:51;19.23;;;4.50;;
15603;SDS011;7902;49.042;9.092;2022-07-23T02:01:17;18.67;;;5.70;;
15603;SDS011;7902;49.042;9.092;2022-07-23T02:03:43;23.30;;;5.67;;
15603;SDS011;7902;49.042;9.092;2022-07-23T02:06:09;19.13;;;5.63;;
15603;SDS011;7902;49.042;9.092;2022-07-23T02:08:34;18.50;;;4.70;;
15603;SDS011;7902;49.042;9.092;2022-07-23T02:11:00;19.77;;;5.27;;
15603;SDS011;7902;49.042;9.092;2022-07-23T02:13:26;30.00;;;5.30;;
15603;SDS011;7902;49.042;9.092;2022-07-23T02:15:54;19.77;;;5.53;;
15603;SDS011;7902;49.042;9.092;2022-07-23T02:18:20;20.40;;;5.20;;
15603;SDS011;7902;49.042;9.092;2022-07-23T02:20:45;20.50;;;5.10;;
15603;SDS011;7902;49.042;9.092;2022-07-23T02:23:11;24.50;;;5.20;;
15603;SDS011;7902;49.042;9.092;2022-07-23T02:25:37;19.37;;;5.30;;
15603;SDS011;7902;49.042;9.092;2022-07-23T02:28:04;18.67;;;5.37;;
15603;SDS011;7902;49.042;9.092;2022-07-23T02:30:30;32.73;;;4.83;;
15603;SDS011;7902;49.042;9.092;2022-07-23T02:32:56;19.63;;;5.73;;
15603;SDS011;7902;49.042;9.092;2022-07-23T02:35:22;20.83;;;5.43;;
15603;SDS011;7902;49.042;9.092;2022-07-23T02:37:48;24.23;;;5.63;;
15603;SDS011;7902;49.042;9.092;2022-07-23T02:40:13;23.97;;;6.20;;
15603;SDS011;7902;49.042;9.092;2022-07-23T02:42:39;20.00;;;5.30;;
15603;SDS011;7902;49.042;9.092;2022-07-23T02:45:06;31.43;;;5.13;;
15603;SDS011;7902;49.042;9.092;2022-07-23T02:47:32;17.90;;;5.13;;
15603;SDS011;7902;49.042;9.092;2022-07-23T02:49:58;18.37;;;5.63;;
15603;SDS011;7902;49.042;9.092;2022-07-23T02:52:24;20.53;;;5.83;;
15603;SDS011;7902;49.042;9.092;2022-07-23T02:54:50;19.57;;;5.23;;
15603;SDS011;7902;49.042;9.092;2022-07-23T02:57:16;31.10;;;6.10;;
15603;SDS011;7902;49.042;9.092;2022-07-23T02:59:42;19.00;;;5.80;;
15603;SDS011;7902;49.042;9.092;2022-07-23T03:02:08;19.30;;;4.63;;
15603;SDS011;7902;49.042;9.092;2022-07-23T03:04:33;23.87;;;5.80;;
15603;SDS011;7902;49.042;9.092;2022-07-23T03:07:00;19.30;;;5.03;;
15603;SDS011;7902;49.042;9.092;2022-07-23T03:09:26;21.43;;;4.73;;
15603;SDS011;7902;49.042;9.092;2022-07-23T03:14:17;17.70;;;4.93;;
15603;SDS011;7902;49.042;9.092;2022-07-23T03:16:43;22.83;;;4.87;;
15603;SDS011;7902;49.042;9.092;2022-07-23T03:19:09;23.90;;;5.10;;
15603;SDS011;7902;49.042;9.092;2022-07-23T03:21:35;23.13;;;5.60;;
15603;SDS011;7902;49.042;9.092;2022-07-23T03:24:07;18.30;;;4.90;;
15603;SDS011;7902;49.042;9.092;2022-07-23T03:26:34;24.43;;;5.37;;
15603;SDS011;7902;49.042;9.092;2022-07-23T03:29:00;22.60;;;5.30;;
15603;SDS011;7902;49.042;9.092;2022-07-23T03:31:26;16.90;;;5.27;;
15603;SDS011;7902;49.042;9.092;2022-07-23T03:33:52;21.60;;;6.30;;
15603;SDS011;7902;49.042;9.092;2022-07-23T03:36:18;22.67;;;6.10;;
15603;SDS011;7902;49.042;9.092;2022-07-23T03:38:44;22.03;;;5.10;;
15603;SDS011;7902;49.042;9.092;2022-07-23T03:41:10;17.67;;;4.67;;
15603;SDS011;7902;49.042;9.092;2022-07-23T03:43:36;21.13;;;5.80;;
15603;SDS011;7902;49.042;9.092;2022-07-23T03:46:02;18.80;;;5.30;;
15603;SDS011;7902;49.042;9.092;2022-07-23T03:48:28;18.67;;;5.10;;
15603;SDS011;7902;49.042;9.092;2022-07-23T03:50:54;20.23;;;5.20;;
15603;SDS011;7902;49.042;9.092;2022-07-23T03:53:20;22.23;;;5.43;;
15603;SDS011;7902;49.042;9.092;2022-07-23T03:55:46;17.70;;;4.60;;
15603;SDS011;7902;49.042;9.092;2022-07-23T03:58:12;17.57;;;4.90;;
15603;SDS011;7902;49.042;9.092;2022-07-23T04:00:37;22.23;;;5.37;;
15603;SDS011;7902;49.042;9.092;2022-07-23T04:03:03;21.10;;;5.20;;
15603;SDS011;7902;49.042;9.092;2022-07-23T04:05:29;17.83;;;5.30;;
15603;SDS011;7902;49.042;9.092;2022-07-23T04:07:55;23.27;;;5.87;;
15603;SDS011;7902;49.042;9.092;2022-07-23T04:10:21;21.60;;;5.60;;
15603;SDS011;7902;49.042;9.092;2022-07-23T04:12:47;22.93;;;5.40;;
15603;SDS011;7902;49.042;9.092;2022-07-23T04:15:13;19.83;;;5.37;;
15603;SDS011;7902;49.042;9.092;2022-07-23T04:17:39;19.67;;;4.50;;
15603;SDS011;7902;49.042;9.092;2022-07-23T04:20:05;21.20;;;5.10;;
15603;SDS011;7902;49.042;9.092;2022-07-23T04:22:31;18.53;;;5.33;;
15603;SDS011;7902;49.042;9.092;2022-07-23T04:24:57;17.60;;;4.90;;
15603;SDS011;7902;49.042;9.092;2022-07-23T04:27:23;21.60;;;5.10;;
15603;SDS011;7902;49.042;9.092;2022-07-23T04:29:49;21.13;;;4.80;;
15603;SDS011;7902;49.042;9.092;2022-07-23T04:32:15;17.77;;;4.80;;
15603;SDS011;7902;49.042;9.092;2022-07-23T04:34:41;18.10;;;5.13;;
15603;SDS011;7902;49.042;9.092;2022-07-23T04:37:07;19.80;;;4.70;;
15603;SDS011;7902;49.042;9.092;2022-07-23T04:39:33;18.67;;;4.90;;
15603;SDS011;7902;49.042;9.092;2022-07-23T04:41:59;35.07;;;5.23;;
15603;SDS011;7902;49.042;9.092;2022-07-23T04:44:25;17.30;;;4.80;;
15603;SDS011;7902;49.042;9.092;2022-07-23T04:46:51;21.63;;;5.73;;
15603;SDS011;7902;49.042;9.092;2022-07-23T04:49:17;18.90;;;4.43;;
15603;SDS011;7902;49.042;9.092;2022-07-23T04:51:42;21.73;;;5.00;;
15603;SDS011;7902;49.042;9.092;2022-07-23T04:54:08;17.63;;;4.80;;
15603;SDS011;7902;49.042;9.092;2022-07-23T04:56:34;17.47;;;4.90;;
15603;SDS011;7902;49.042;9.092;2022-07-23T04:59:00;24.83;;;5.17;;
15603;SDS011;7902;49.042;9.092;2022-07-23T05:01:26;22.57;;;5.40;;
15603;SDS011;7902;49.042;9.092;2022-07-23T05:03:52;22.00;;;5.37;;
15603;SDS011;7902;49.042;9.092;2022-07-23T05:06:18;21.43;;;4.67;;
15603;SDS011;7902;49.042;9.092;2022-07-23T05:08:44;20.53;;;5.40;;
15603;SDS011;7902;49.042;9.092;2022-07-23T05:11:10;38.40;;;5.17;;
15603;SDS011;7902;49.042;9.092;2022-07-23T05:13:36;23.33;;;5.47;;
15603;SDS011;7902;49.042;9.092;2022-07-23T05:16:02;18.23;;;4.57;;
15603;SDS011;7902;49.042;9.092;2022-07-23T05:18:28;34.63;;;5.17;;
15603;SDS011;7902;49.042;9.092;2022-07-23T05:20:54;18.73;;;4.40;;
15603;SDS011;7902;49.042;9.092;2022-07-23T05:23:20;18.03;;;4.80;;
15603;SDS011;7902;49.042;9.092;2022-07-23T05:25:46;21.07;;;5.33;;
15603;SDS011;7902;49.042;9.092;2022-07-23T05:28:12;22.90;;;5.77;;
15603;SDS011;7902;49.042;9.092;2022-07-23T05:30:37;20.30;;;5.93;;
15603;SDS011;7902;49.042;9.092;2022-07-23T05:33:03;17.60;;;4.57;;
15603;SDS011;7902;49.042;9.092;2022-07-23T05:35:29;24.60;;;5.07;;
15603;SDS011;7902;49.042;9.092;2022-07-23T05:37:55;23.40;;;5.90;;
15603;SDS011;7902;49.042;9.092;2022-07-23T05:40:21;19.77;;;5.20;;
15603;SDS011;7902;49.042;9.092;2022-07-23T05:42:47;19.03;;;5.13;;
15603;SDS011;7902;49.042;9.092;2022-07-23T05:45:13;35.23;;;6.37;;
15603;SDS011;7902;49.042;9.092;2022-07-23T05:47:46;19.80;;;5.50;;
15603;SDS011;7902;49.042;9.092;2022-07-23T05:50:13;27.47;;;4.90;;
15603;SDS011;7902;49.042;9.092;2022-07-23T05:52:40;20.30;;;5.60;;
15603;SDS011;7902;49.042;9.092;2022-07-23T05:55:07;26.70;;;6.80;;
15603;SDS011;7902;49.042;9.092;2022-07-23T05:57:34;22.80;;;6.10;;
15603;SDS011;7902;49.042;9.092;2022-07-23T06:00:00;23.13;;;7.07;;
15603;SDS011;7902;49.042;9.092;2022-07-23T06:02:27;24.23;;;7.73;;
15603;SDS011;7902;49.042;9.092;2022-07-23T06:04:53;20.87;;;6.87;;
15603;SDS011;7902;49.042;9.092;2022-07-23T06:07:19;22.07;;;6.70;;
15603;SDS011;7902;49.042;9.092;2022-07-23T06:09:44;25.17;;;6.67;;
15603;SDS011;7902;49.042;9.092;2022-07-23T06:12:12;21.40;;;7.67;;
15603;SDS011;7902;49.042;9.092;2022-07-23T06:14:38;22.93;;;7.87;;
15603;SDS011;7902;49.042;9.092;2022-07-23T06:17:04;43.40;;;7.97;;
15603;SDS011;7902;49.042;9.092;2022-07-23T06:19:30;23.80;;;7.83;;
15603;SDS011;7902;49.042;9.092;2022-07-23T06:21:56;24.53;;;7.43;;
15603;SDS011;7902;49.042;9.092;2022-07-23T06:24:22;26.30;;;8.07;;
15603;SDS011;7902;49.042;9.092;2022-07-23T06:26:48;24.60;;;7.90;;
15603;SDS011;7902;49.042;9.092;2022-07-23T06:29:14;23.80;;;8.17;;
15603;SDS011;7902;49.042;9.092;2022-07-23T06:31:39;23.17;;;7.10;;
15603;SDS011;7902;49.042;9.092;2022-07-23T06:34:05;19.70;;;6.50;;
15603;SDS011;7902;49.042;9.092;2022-07-23T06:36:31;18.90;;;6.43;;
15603;SDS011;7902;49.042;9.092;2022-07-23T06:38:57;22.43;;;7.00;;
15603;SDS011;7902;49.042;9.092;2022-07-23T06:41:23;21.20;;;7.80;;
15603;SDS011;7902;49.042;9.092;2022-07-23T06:43:49;21.80;;;7.60;;
15603;SDS011;7902;49.042;9.092;2022-07-23T06:46:15;22.83;;;7.80;;
15603;SDS011;7902;49.042;9.092;2022-07-23T06:48:41;19.40;;;7.20;;
15603;SDS011;7902;49.042;9.092;2022-07-23T06:51:07;21.30;;;7.30;;
15603;SDS011;7902;49.042;9.092;2022-07-23T06:53:33;21.40;;;6.80;;
15603;SDS011;7902;49.042;9.092;2022-07-23T06:55:59;22.77;;;7.30;;
15603;SDS011;7902;49.042;9.092;2022-07-23T06:58:25;23.13;;;7.20;;
15603;SDS011;7902;49.042;9.092;2022-07-23T07:00:51;36.07;;;7.53;;
15603;SDS011;7902;49.042;9.092;2022-07-23T07:03:17;21.90;;;7.40;;
15603;SDS011;7902;49.042;9.092;2022-07-23T07:05:44;25.97;;;7.90;;
15603;SDS011;7902;49.042;9.092;2022-07-23T07:08:10;22.00;;;6.93;;
15603;SDS011;7902;49.042;9.092;2022-07-23T07:10:36;24.10;;;8.53;;
15603;SDS011;7902;49.042;9.092;2022-07-23T07:13:02;23.33;;;7.70;;
15603;SDS011;7902;49.042;9.092;2022-07-23T07:15:28;32.33;;;8.40;;
15603;SDS011;7902;49.042;9.092;2022-07-23T07:17:54;24.00;;;7.37;;
15603;SDS011;7902;49.042;9.092;2022-07-23T07:20:19;23.57;;;7.33;;
15603;SDS011;7902;49.042;9.092;2022-07-23T07:22:45;18.57;;;5.47;;
15603;SDS011;7902;49.042;9.092;2022-07-23T07:25:11;21.53;;;6.47;;
15603;SDS011;7902;49.042;9.092;2022-07-23T07:27:37;21.87;;;6.70;;
15603;SDS011;7902;49.042;9.092;2022-07-23T07:30:04;23.40;;;7.40;;
15603;SDS011;7902;49.042;9.092;2022-07-23T07:32:32;24.67;;;5.50;;
15603;SDS011;7902;49.042;9.092;2022-07-23T07:34:58;21.10;;;5.60;;
15603;SDS011;7902;49.042;9.092;2022-07-23T07:37:24;23.93;;;6.50;;
15603;SDS011;7902;49.042;9.092;2022-07-23T07:39:50;21.27;;;6.40;;
15603;SDS011;7902;49.042;9.092;2022-07-23T07:42:16;21.70;;;5.90;;
15603;SDS011;7902;49.042;9.092;2022-07-23T07:44:42;25.83;;;5.80;;
15603;SDS011;7902;49.042;9.092;2022-07-23T07:47:08;17.97;;;6.33;;
15603;SDS011;7902;49.042;9.092;2022-07-23T07:49:34;21.00;;;7.63;;
15603;SDS011;7902;49.042;9.092;2022-07-23T07:51:59;22.40;;;6.20;;
15603;SDS011;7902;49.042;9.092;2022-07-23T07:54:25;24.17;;;7.00;;
15603;SDS011;7902;49.042;9.092;2022-07-23T07:56:51;23.73;;;5.83;;
15603;SDS011;7902;49.042;9.092;2022-07-23T07:59:17;27.10;;;6.47;;
15603;SDS011;7902;49.042;9.092;2022-07-23T08:01:43;18.20;;;6.10;;
15603;SDS011;7902;49.042;9.092;2022-07-23T08:04:09;17.97;;;6.37;;
15603;SDS011;7902;49.042;9.092;2022-07-23T08:06:35;19.90;;;5.73;;
15603;SDS011;7902;49.042;9.092;2022-07-23T08:09:01;18.37;;;6.10;;
15603;SDS011;7902;49.042;9.092;2022-07-23T08:11:27;17.73;;;5.10;;
15603;SDS011;7902;49.042;9.092;2022-07-23T08:13:53;24.83;;;5.83;;
15603;SDS011;7902;49.042;9.092;2022-07-23T08:16:18;19.90;;;5.90;;
15603;SDS011;7902;49.042;9.092;2022-07-23T08:18:44;19.20;;;6.23;;
15603;SDS011;7902;49.042;9.092;2022-07-23T08:21:10;23.13;;;5.90;;
15603;SDS011;7902;49.042;9.092;2022-07-23T08:23:36;29.70;;;7.40;;
15603;SDS011;7902;49.042;9.092;2022-07-23T08:26:02;20.10;;;7.60;;
15603;SDS011;7902;49.042;9.092;2022-07-23T08:28:28;27.47;;;8.40;;
15603;SDS011;7902;49.042;9.092;2022-07-23T08:30:54;24.90;;;8.73;;
15603;SDS011;7902;49.042;9.092;2022-07-23T08:33:20;23.10;;;8.60;;
15603;SDS011;7902;49.042;9.092;2022-07-23T08:35:47;21.93;;;8.30;;
15603;SDS011;7902;49.042;9.092;2022-07-23T08:38:16;22.80;;;8.60;;
15603;SDS011;7902;49.042;9.092;2022-07-23T08:40:47;24.50;;;8.33;;
15603;SDS011;7902;49.042;9.092;2022-07-23T08:43:21;22.07;;;8.40;;
15603;SDS011;7902;49.042;9.092;2022-07-23T08:45:53;25.33;;;8.07;;
15603;SDS011;7902;49.042;9.092;2022-07-23T08:48:24;20.67;;;7.67;;
15603;SDS011;7902;49.042;9.092;2022-07-23T08:50:56;22.57;;;8.30;;
15603;SDS011;7902;49.042;9.092;2022-07-23T08:53:24;22.10;;;8.43;;
15603;SDS011;7902;49.042;9.092;2022-07-23T08:55:51;22.80;;;8.10;;
15603;SDS011;7902;49.042;9.092;2022-07-23T08:58:21;25.13;;;8.33;;
15603;SDS011;7902;49.042;9.092;2022-07-23T09:00:48;21.53;;;7.17;;
15603;SDS011;7902;49.042;9.092;2022-07-23T09:03:16;25.80;;;7.20;;
15603;SDS011;7902;49.042;9.092;2022-07-23T09:05:44;20.97;;;6.97;;
15603;SDS011;7902;49.042;9.092;2022-07-23T09:13:22;22.07;;;6.90;;
15603;SDS011;7902;49.042;9.092;2022-07-23T09:16:05;20.23;;;6.90;;
15603;SDS011;7902;49.042;9.092;2022-07-23T09:18:42;19.80;;;6.97;;
15603;SDS011;7902;49.042;9.092;2022-07-23T09:21:18;19.73;;;6.73;;
15603;SDS011;7902;49.042;9.092;2022-07-23T09:26:34;20.70;;;6.77;;
15603;SDS011;7902;49.042;9.092;2022-07-23T09:29:18;18.60;;;6.27;;
15603;SDS011;7902;49.042;9.092;2022-07-23T09:31:47;20.70;;;7.20;;
15603;SDS011;7902;49.042;9.092;2022-07-23T09:36:41;19.63;;;6.03;;
15603;SDS011;7902;49.042;9.092;2022-07-23T09:39:08;16.90;;;4.93;;
15603;SDS011;7902;49.042;9.092;2022-07-23T09:41:36;16.60;;;4.90;;
15603;SDS011;7902;49.042;9.092;2022-07-23T09:44:07;20.70;;;5.53;;
15603;SDS011;7902;49.042;9.092;2022-07-23T09:46:44;19.00;;;4.83;;
15603;SDS011;7902;49.042;9.092;2022-07-23T09:54:22;16.63;;;5.25;;
15603;SDS011;7902;49.042;9.092;2022-07-23T09:56:50;21.75;;;5.65;;
15603;SDS011;7902;49.042;9.092;2022-07-23T09:59:17;20.25;;;5.32;;
15603;SDS011;7902;49.042;9.092;2022-07-23T10:01:47;19.80;;;5.82;;
15603;SDS011;7902;49.042;9.092;2022-07-23T10:04:14;26.60;;;4.82;;
15603;SDS011;7902;49.042;9.092;2022-07-23T10:06:40;18.88;;;4.85;;
15603;SDS011;7902;49.042;9.092;2022-07-23T10:09:08;23.80;;;5.03;;
15603;SDS011;7902;49.042;9.092;2022-07-23T10:11:38;17.70;;;5.00;;
15603;SDS011;7902;49.042;9.092;2022-07-23T10:14:04;38.60;;;5.40;;
15603;SDS011;7902;49.042;9.092;2022-07-23T10:16:31;18.45;;;4.68;;
15603;SDS011;7902;49.042;9.092;2022-07-23T10:18:57;21.48;;;5.18;;
15603;SDS011;7902;49.042;9.092;2022-07-23T10:21:40;23.50;;;4.78;;
15603;SDS011;7902;49.042;9.092;2022-07-23T10:24:40;16.20;;;4.00;;
15603;SDS011;7902;49.042;9.092;2022-07-23T10:27:17;17.52;;;4.78;;
15603;SDS011;7902;49.042;9.092;2022-07-23T10:38:00;18.35;;;5.20;;
15603;SDS011;7902;49.042;9.092;2022-07-23T10:40:32;16.30;;;4.60;;
15603;SDS011;7902;49.042;9.092;2022-07-23T10:42:59;18.13;;;4.72;;
15603;SDS011;7902;49.042;9.092;2022-07-23T10:45:29;19.30;;;4.93;;
15603;SDS011;7902;49.042;9.092;2022-07-23T10:48:13;15.45;;;3.65;;
15603;SDS011;7902;49.042;9.092;2022-07-23T10:50:40;17.73;;;4.57;;
15603;SDS011;7902;49.042;9.092;2022-07-23T10:58:00;18.08;;;4.20;;
15603;SDS011;7902;49.042;9.092;2022-07-23T11:00:28;16.95;;;4.18;;
15603;SDS011;7902;49.042;9.092;2022-07-23T11:02:59;17.35;;;4.32;;
15603;SDS011;7902;49.042;9.092;2022-07-23T11:05:27;33.63;;;4.80;;
15603;SDS011;7902;49.042;9.092;2022-07-23T11:10:34;18.02;;;4.28;;
15603;SDS011;7902;49.042;9.092;2022-07-23T11:31:52;20.85;;;5.03;;
15603;SDS011;7902;49.042;9.092;2022-07-23T11:34:27;20.60;;;5.00;;
15603;SDS011;7902;49.042;9.092;2022-07-23T11:37:00;20.42;;;4.68;;
15603;SDS011;7902;49.042;9.092;2022-07-23T11:39:28;19.58;;;4.95;;
15603;SDS011;7902;49.042;9.092;2022-07-23T11:41:55;21.08;;;4.18;;
15603;SDS011;7902;49.042;9.092;2022-07-23T11:44:29;17.73;;;4.57;;
15603;SDS011;7902;49.042;9.092;2022-07-23T11:49:26;20.50;;;4.40;;
15603;SDS011;7902;49.042;9.092;2022-07-23T11:52:02;22.02;;;4.72;;
15603;SDS011;7902;49.042;9.092;2022-07-23T11:54:31;18.38;;;4.47;;
15603;SDS011;7902;49.042;9.092;2022-07-23T11:56:58;25.10;;;5.32;;
15603;SDS011;7902;49.042;9.092;2022-07-23T11:59:28;23.25;;;5.25;;
15603;SDS011;7902;49.042;9.092;2022-07-23T12:02:00;25.27;;;4.32;;
15603;SDS011;7902;49.042;9.092;2022-07-23T12:04:43;18.45;;;5.32;;
15603;SDS011;7902;49.042;9.092;2022-07-23T12:09:48;18.70;;;5.55;;
15603;SDS011;7902;49.042;9.092;2022-07-23T12:12:14;18.02;;;4.88;;
15603;SDS011;7902;49.042;9.092;2022-07-23T12:14:57;26.60;;;5.53;;
15603;SDS011;7902;49.042;9.092;2022-07-23T12:17:28;20.50;;;5.57;;
15603;SDS011;7902;49.042;9.092;2022-07-23T12:19:57;18.63;;;5.28;;
15603;SDS011;7902;49.042;9.092;2022-07-23T12:22:24;19.08;;;4.97;;
15603;SDS011;7902;49.042;9.092;2022-07-23T12:24:55;19.02;;;4.88;;
15603;SDS011;7902;49.042;9.092;2022-07-23T12:27:23;19.58;;;5.13;;
15603;SDS011;7902;49.042;9.092;2022-07-23T12:29:50;19.40;;;4.85;;
15603;SDS011;7902;49.042;9.092;2022-07-23T12:32:19;18.77;;;5.20;;
15603;SDS011;7902;49.042;9.092;2022-07-23T12:35:02;17.75;;;4.97;;
15603;SDS011;7902;49.042;9.092;2022-07-23T12:37:30;23.88;;;5.63;;
15603;SDS011;7902;49.042;9.092;2022-07-23T12:39:57;19.75;;;5.90;;
15603;SDS011;7902;49.042;9.092;2022-07-23T12:42:23;18.00;;;4.55;;
15603;SDS011;7902;49.042;9.092;2022-07-23T12:45:03;23.60;;;5.07;;
15603;SDS011;7902;49.042;9.092;2022-07-23T12:47:52;23.58;;;5.00;;
15603;SDS011;7902;49.042;9.092;2022-07-23T12:53:14;17.88;;;4.68;;
15603;SDS011;7902;49.042;9.092;2022-07-23T12:55:42;18.58;;;5.10;;
15603;SDS011;7902;49.042;9.092;2022-07-23T12:58:10;17.23;;;4.70;;
15603;SDS011;7902;49.042;9.092;2022-07-23T13:00:52;18.58;;;4.38;;
15603;SDS011;7902;49.042;9.092;2022-07-23T13:03:30;18.15;;;4.57;;
15603;SDS011;7902;49.042;9.092;2022-07-23T13:06:10;15.90;;;4.20;;
15603;SDS011;7902;49.042;9.092;2022-07-23T13:08:37;21.60;;;4.22;;
15603;SDS011;7902;49.042;9.092;2022-07-23T13:11:05;19.80;;;4.25;;
15603;SDS011;7902;49.042;9.092;2022-07-23T13:13:33;17.48;;;4.63;;
15603;SDS011;7902;49.042;9.092;2022-07-23T13:16:00;17.73;;;4.55;;
15603;SDS011;7902;49.042;9.092;2022-07-23T13:18:27;21.02;;;4.07;;
15603;SDS011;7902;49.042;9.092;2022-07-23T13:20:54;18.65;;;4.72;;
15603;SDS011;7902;49.042;9.092;2022-07-23T13:23:20;16.48;;;4.53;;
15603;SDS011;7902;49.042;9.092;2022-07-23T13:25:47;21.30;;;4.60;;
15603;SDS011;7902;49.042;9.092;2022-07-23T13:28:14;16.10;;;4.30;;
15603;SDS011;7902;49.042;9.092;2022-07-23T13:30:41;19.35;;;4.72;;
15603;SDS011;7902;49.042;9.092;2022-07-23T13:33:07;26.00;;;4.75;;
15603;SDS011;7902;49.042;9.092;2022-07-23T13:35:34;16.77;;;4.07;;
15603;SDS011;7902;49.042;9.092;2022-07-23T13:38:01;18.90;;;4.00;;
15603;SDS011;7902;49.042;9.092;2022-07-23T13:40:28;19.42;;;4.10;;
15603;SDS011;7902;49.042;9.092;2022-07-23T13:42:54;17.40;;;4.45;;
15603;SDS011;7902;49.042;9.092;2022-07-23T13:45:20;18.02;;;4.40;;
15603;SDS011;7902;49.042;9.092;2022-07-23T13:47:46;16.17;;;4.53;;
15603;SDS011;7902;49.042;9.092;2022-07-23T13:50:12;16.00;;;4.20;;
15603;SDS011;7902;49.042;9.092;2022-07-23T13:52:40;16.60;;;4.45;;
15603;SDS011;7902;49.042;9.092;2022-07-23T13:55:07;19.63;;;4.57;;
15603;SDS011;7902;49.042;9.092;2022-07-23T13:57:33;18.13;;;3.83;;
15603;SDS011;7902;49.042;9.092;2022-07-23T13:59:59;16.17;;;4.40;;
15603;SDS011;7902;49.042;9.092;2022-07-23T14:02:25;18.42;;;3.97;;
15603;SDS011;7902;49.042;9.092;2022-07-23T14:04:51;17.75;;;4.40;;
15603;SDS011;7902;49.042;9.092;2022-07-23T14:07:18;16.52;;;4.20;;
15603;SDS011;7902;49.042;9.092;2022-07-23T14:09:44;17.13;;;4.78;;
15603;SDS011;7902;49.042;9.092;2022-07-23T14:12:10;16.77;;;5.00;;
15603;SDS011;7902;49.042;9.092;2022-07-23T14:14:36;17.23;;;4.50;;
15603;SDS011;7902;49.042;9.092;2022-07-23T14:17:02;16.17;;;4.07;;
15603;SDS011;7902;49.042;9.092;2022-07-23T14:19:28;19.58;;;4.63;;
15603;SDS011;7902;49.042;9.092;2022-07-23T14:21:54;21.73;;;4.38;;
15603;SDS011;7902;49.042;9.092;2022-07-23T14:24:20;17.83;;;5.20;;
15603;SDS011;7902;49.042;9.092;2022-07-23T14:26:46;21.70;;;4.93;;
15603;SDS011;7902;49.042;9.092;2022-07-23T14:29:12;17.10;;;4.38;;
15603;SDS011;7902;49.042;9.092;2022-07-23T14:31:38;17.58;;;5.22;;
15603;SDS011;7902;49.042;9.092;2022-07-23T14:34:04;17.70;;;4.25;;
15603;SDS011;7902;49.042;9.092;2022-07-23T14:36:30;18.48;;;5.28;;
15603;SDS011;7902;49.042;9.092;2022-07-23T14:38:56;20.05;;;5.10;;
15603;SDS011;7902;49.042;9.092;2022-07-23T14:41:22;17.73;;;5.13;;
15603;SDS011;7902;49.042;9.092;2022-07-23T14:43:48;18.75;;;4.78;;
15603;SDS011;7902;49.042;9.092;2022-07-23T14:46:14;18.17;;;4.70;;
15603;SDS011;7902;49.042;9.092;2022-07-23T14:48:40;16.77;;;4.38;;
15603;SDS011;7902;49.042;9.092;2022-07-23T14:51:06;23.30;;;4.55;;
15603;SDS011;7902;49.042;9.092;2022-07-23T14:53:32;19.73;;;5.22;;
15603;SDS011;7902;49.042;9.092;2022-07-23T14:55:58;18.73;;;5.15;;
15603;SDS011;7902;49.042;9.092;2022-07-23T14:58:24;22.90;;;5.50;;
15603;SDS011;7902;49.042;9.092;2022-07-23T15:00:50;18.08;;;5.43;;
15603;SDS011;7902;49.042;9.092;2022-07-23T15:03:16;24.98;;;5.70;;
15603;SDS011;7902;49.042;9.092;2022-07-23T15:05:42;19.77;;;5.53;;
15603;SDS011;7902;49.042;9.092;2022-07-23T15:08:08;21.00;;;6.18;;
15603;SDS011;7902;49.042;9.092;2022-07-23T15:10:34;18.10;;;5.75;;
15603;SDS011;7902;49.042;9.092;2022-07-23T15:13:01;17.25;;;5.15;;
15603;SDS011;7902;49.042;9.092;2022-07-23T15:15:26;17.98;;;4.60;;
15603;SDS011;7902;49.042;9.092;2022-07-23T15:17:52;18.33;;;4.68;;
15603;SDS011;7902;49.042;9.092;2022-07-23T15:20:18;20.33;;;4.80;;
15603;SDS011;7902;49.042;9.092;2022-07-23T15:22:44;16.15;;;4.68;;
15603;SDS011;7902;49.042;9.092;2022-07-23T15:25:13;22.88;;;5.25;;
15603;SDS011;7902;49.042;9.092;2022-07-23T15:27:39;16.98;;;4.63;;
15603;SDS011;7902;49.042;9.092;2022-07-23T15:30:05;21.50;;;5.47;;
15603;SDS011;7902;49.042;9.092;2022-07-23T15:32:32;20.88;;;4.97;;
15603;SDS011;7902;49.042;9.092;2022-07-23T15:34:58;21.85;;;5.15;;
15603;SDS011;7902;49.042;9.092;2022-07-23T15:37:24;17.40;;;4.90;;
15603;SDS011;7902;49.042;9.092;2022-07-23T15:39:50;20.45;;;5.03;;
15603;SDS011;7902;49.042;9.092;2022-07-23T15:42:16;17.38;;;5.60;;
15603;SDS011;7902;49.042;9.092;2022-07-23T15:44:42;17.80;;;5.68;;
15603;SDS011;7902;49.042;9.092;2022-07-23T15:47:14;18.52;;;5.10;;
15603;SDS011;7902;49.042;9.092;2022-07-23T15:49:40;18.88;;;5.57;;